Time;durP1;ratioP1;P1;durP2;ratioP2;P2;SDS_P1;SDS_P2;PMS_P1;PMS_P2;Temp;Humidity;BMP_temperature;BMP_pressure;BME280_temperature;BME280_humidity;BME280_pressure;Samples;Min_cycle;Max_cycle;Signal;HPM_P1;HPM_P2
2021/05/24 00:00:01;;;;;;;3.65;0.75;;;;;;;10.02;72.29;100311.63;4926025;28;36303;31
2021/05/24 00:03:07;;;;;;;2.95;0.90;;;;;;;9.96;72.73;100303.38;4921173;28;33234;-90
2021/05/24 00:05:45;;;;;;;4.15;0.90;;;;;;;10.09;72.13;100301.00;4946074;28;33221;-89
2021/05/24 00:08:27;;;;;;;3.12;0.77;;;;;;;9.95;72.40;100307.09;4919037;28;34158;31
2021/05/24 00:21:22;;;;;;;2.28;0.70;;;;;;;9.82;71.79;100312.97;4932809;28;33430;-90
2021/05/24 00:24:06;;;;;;;1.52;0.90;;;;;;;9.65;72.15;100322.94;4918054;28;34591;31
2021/05/24 00:26:44;;;;;;;5.28;0.70;;;;;;;9.67;71.65;100321.78;4952774;28;33686;-96
2021/05/24 00:29:45;;;;;;;0.85;0.65;;;;;;;9.70;71.76;100329.53;4894046;29;33174;-88
2021/05/24 00:39:12;;;;;;;0.70;0.60;;;;;;;9.29;72.91;100334.84;4896090;28;20762;31
2021/05/24 00:45:05;;;;;;;4.55;0.90;;;;;;;9.56;72.18;100346.38;4911145;28;34428;-90
2021/05/24 00:48:07;;;;;;;1.00;0.80;;;;;;;9.58;71.65;100335.41;4896171;29;34911;-89
2021/05/24 00:50:40;;;;;;;5.22;1.05;;;;;;;9.75;70.85;100334.44;4891807;28;1170661;-90
2021/05/24 00:56:53;;;;;;;0.60;0.52;;;;;;;9.52;70.99;100328.81;4882759;28;35527;31
2021/05/24 01:00:10;;;;;;;2.60;0.98;;;;;;;9.22;71.68;100335.66;4916032;28;20580;-90
2021/05/24 01:02:44;;;;;;;2.50;0.70;;;;;;;9.47;70.57;100337.41;4899407;28;33622;-89
2021/05/24 01:05:43;;;;;;;2.20;0.70;;;;;;;9.48;70.27;100333.72;4935468;28;33196;-89
2021/05/24 01:08:25;;;;;;;4.10;1.37;;;;;;;9.16;71.83;100345.25;4909342;28;34622;-89
2021/05/24 01:11:12;;;;;;;4.80;0.60;;;;;;;9.16;71.40;100353.34;4901144;28;34532;31
2021/05/24 01:14:23;;;;;;;4.45;0.80;;;;;;;9.12;70.99;100341.22;4932665;28;34444;-89
2021/05/24 01:20:45;;;;;;;4.68;1.20;;;;;;;8.93;71.42;100345.00;4921016;28;33431;-89
2021/05/24 01:23:27;;;;;;;1.62;1.15;;;;;;;8.20;74.34;100341.69;4875581;28;34208;31
2021/05/24 01:26:24;;;;;;;3.75;0.82;;;;;;;8.06;75.70;100342.28;4915888;28;34225;-91
2021/05/24 01:33:02;;;;;;;1.73;0.95;;;;;;;8.91;72.16;100345.19;4937091;28;20132;-88
2021/05/24 01:35:38;;;;;;;4.65;1.65;;;;;;;8.73;72.05;100349.81;4937951;28;34676;-88
2021/05/24 01:51:39;;;;;;;1.85;0.95;;;;;;;7.91;73.88;100358.13;4898687;28;33419;-87
2021/05/24 01:54:13;;;;;;;0.95;0.57;;;;;;;8.01;73.64;100353.53;4913207;28;33833;-88
2021/05/24 01:56:46;;;;;;;1.40;0.60;;;;;;;8.46;71.70;100360.59;4904178;28;33569;-89
2021/05/24 02:00:15;;;;;;;0.80;0.52;;;;;;;7.99;72.98;100368.12;4941163;28;36515;-87
2021/05/24 02:07:04;;;;;;;2.50;1.25;;;;;;;8.09;73.01;100368.87;4936285;28;35339;31
2021/05/24 02:16:43;;;;;;;3.28;0.70;;;;;;;8.28;72.45;100357.94;4319898;29;35488;-91
2021/05/24 02:19:20;;;;;;;3.65;0.88;;;;;;;7.94;73.10;100360.50;4904739;28;33136;-88
2021/05/24 02:22:19;;;;;;;3.03;1.05;;;;;;;7.70;74.00;100358.47;4912364;28;34622;-92
2021/05/24 02:25:10;;;;;;;1.45;0.77;;;;;;;7.59;75.98;100368.44;4934999;28;33858;31
2021/05/24 02:27:44;;;;;;;1.27;0.77;;;;;;;7.71;75.04;100362.81;4935645;28;34663;-88
2021/05/24 02:30:18;;;;;;;6.37;1.33;;;;;;;7.68;75.74;100369.37;4918628;28;33991;-87
2021/05/24 02:33:24;;;;;;;1.12;0.62;;;;;;;7.67;75.79;100372.22;4890753;28;34196;-88
2021/05/24 02:35:59;;;;;;;6.53;1.27;;;;;;;8.05;74.71;100373.72;4901409;28;35909;-88
2021/05/24 02:39:34;;;;;;;4.50;1.42;;;;;;;8.13;73.98;100359.50;4905461;28;20079;-89
2021/05/24 02:42:16;;;;;;;3.55;0.68;;;;;;;8.39;72.65;100364.06;4906921;28;33933;31
2021/05/24 02:48:46;;;;;;;7.40;1.05;;;;;;;8.36;72.22;100375.97;4792181;28;36845;31
2021/05/24 03:02:24;;;;;;;1.35;0.95;;;;;;;8.20;72.67;100411.69;4795569;28;37056;31
2021/05/24 03:08:11;;;;;;;5.87;1.02;;;;;;;8.37;71.52;100415.41;4894288;28;32871;-89
2021/05/24 03:10:45;;;;;;;2.05;1.12;;;;;;;8.42;71.28;100396.91;4911179;28;34318;-89
2021/05/24 03:17:50;;;;;;;1.80;0.85;;;;;;;8.11;72.58;100409.94;4419227;29;35429;31
2021/05/24 03:20:28;;;;;;;5.25;1.08;;;;;;;8.22;71.80;100401.62;4942374;28;32841;-90
2021/05/24 03:23:01;;;;;;;0.90;0.60;;;;;;;8.29;71.34;100397.31;4932449;28;33779;-89
2021/05/24 03:25:37;;;;;;;4.93;1.10;;;;;;;8.18;72.07;100407.50;4929746;28;33295;31
2021/05/24 03:28:30;;;;;;;2.75;0.75;;;;;;;7.74;74.43;100414.50;4952777;28;33409;31
2021/05/24 03:31:08;;;;;;;2.15;1.25;;;;;;;7.77;75.18;100418.75;4950743;28;33266;-89
2021/05/24 03:40:12;;;;;;;1.70;1.20;;;;;;;8.40;72.60;100408.84;4932725;28;33635;-89
2021/05/24 03:53:33;;;;;;;7.65;1.85;;;;;;;8.68;72.67;100408.72;4893501;28;37769;31
2021/05/24 03:56:43;;;;;;;1.55;1.20;;;;;;;8.96;71.66;100404.00;4416780;28;36912;-89
2021/05/24 04:06:41;;;;;;;3.92;2.37;;;;;;;8.97;73.05;100403.00;4942062;28;33631;-89
2021/05/24 04:09:34;;;;;;;4.22;1.95;;;;;;;9.06;73.05;100411.97;4850155;28;37251;31
2021/05/24 04:12:22;;;;;;;2.00;1.70;;;;;;;9.12;73.68;100419.44;4888647;28;33853;31
2021/05/24 04:14:56;;;;;;;3.65;1.70;;;;;;;9.27;74.51;100428.59;4928318;28;32417;-90
2021/05/24 04:17:35;;;;;;;2.97;1.80;;;;;;;9.47;74.92;100431.00;4893900;28;33667;-89
2021/05/24 04:20:11;;;;;;;3.25;2.35;;;;;;;9.74;74.69;100429.06;4890801;28;34148;-89
2021/05/24 04:22:47;;;;;;;3.45;2.20;;;;;;;9.94;74.41;100437.69;4934974;28;33736;-89
2021/05/24 04:28:56;;;;;;;1.83;1.67;;;;;;;10.18;74.76;100436.87;4916182;28;35802;31
2021/05/24 04:41:43;;;;;;;3.65;2.22;;;;;;;10.87;74.06;100428.44;4917629;28;33611;31
2021/05/24 04:44:21;;;;;;;2.62;2.15;;;;;;;10.52;76.27;100419.69;4922080;28;34723;-90
2021/05/24 04:46:55;;;;;;;5.04;1.86;;;;;;;10.90;75.47;100418.09;4888028;28;35400;-89
2021/05/24 04:50:04;;;;;;;4.68;2.00;;;;;;;10.63;76.22;100411.25;4926210;28;33542;-90
2021/05/24 04:58:53;;;;;;;2.60;2.00;;;;;;;11.43;74.38;100426.53;4943599;28;35737;31
2021/05/24 05:11:58;;;;;;;4.97;1.98;;;;;;;11.89;75.33;100452.88;4913112;28;20157;-90
2021/05/24 05:14:32;;;;;;;3.40;1.87;;;;;;;12.18;74.30;100459.47;4914076;28;35561;-89
2021/05/24 05:17:08;;;;;;;8.38;2.33;;;;;;;12.41;73.46;100467.59;4929643;28;34379;-90
2021/05/24 05:19:47;;;;;;;2.97;2.10;;;;;;;12.50;73.47;100471.06;4935136;28;32670;-94
2021/05/24 05:22:51;;;;;;;3.03;1.80;;;;;;;12.50;73.19;100449.38;4915716;28;37740;-89
2021/05/24 05:25:57;;;;;;;3.05;1.85;;;;;;;12.67;72.33;100441.97;4950499;28;33642;-89
2021/05/24 05:32:25;;;;;;;2.47;1.52;;;;;;;13.12;71.14;100434.69;4900729;28;33210;-89
2021/05/24 05:34:59;;;;;;;3.95;1.80;;;;;;;13.49;69.90;100432.94;4934308;28;33458;-90
2021/05/24 05:37:34;;;;;;;9.90;2.40;;;;;;;13.61;69.73;100417.00;4906237;28;34814;-89
2021/05/24 05:40:10;;;;;;;2.90;1.85;;;;;;;13.74;69.55;100419.00;4931819;29;33669;-89
2021/05/24 05:46:11;;;;;;;4.45;1.70;;;;;;;13.87;69.98;100419.16;4891683;28;20904;-89
2021/05/24 05:49:00;;;;;;;6.03;1.58;;;;;;;14.13;68.22;100417.72;4868803;28;635737;31
2021/05/24 05:51:33;;;;;;;4.43;1.98;;;;;;;14.07;67.88;100424.81;4920179;28;34008;-91
2021/05/24 05:58:00;;;;;;;1.65;1.40;;;;;;;14.20;67.62;100424.06;4901815;28;35486;-90
2021/05/24 06:00:35;;;;;;;1.65;1.17;;;;;;;14.35;67.49;100432.16;4905189;28;33725;-89
2021/05/24 06:03:31;;;;;;;3.80;1.42;;;;;;;14.48;66.53;100439.59;4891933;28;33607;-89
2021/05/24 06:13:05;;;;;;;3.70;1.33;;;;;;;14.93;66.89;100458.41;4831331;28;36032;-90
2021/05/24 06:19:02;;;;;;;1.60;0.85;;;;;;;15.41;65.73;100453.03;4897008;29;34625;-95
2021/05/24 06:21:36;;;;;;;2.97;1.00;;;;;;;15.15;68.07;100451.00;4892211;29;34481;-90
2021/05/24 06:24:10;;;;;;;3.28;1.12;;;;;;;15.40;65.56;100455.94;4909870;29;33836;-94
2021/05/24 06:27:24;;;;;;;4.12;0.73;;;;;;;15.48;65.96;100448.44;4927598;29;20130;-95
2021/05/24 06:30:07;;;;;;;3.10;0.93;;;;;;;15.40;66.09;100461.41;4896755;29;32899;-95
2021/05/24 06:33:14;;;;;;;3.90;1.62;;;;;;;15.71;65.76;100450.84;4872740;29;33301;-95
2021/05/24 06:36:16;;;;;;;5.20;1.87;;;;;;;15.76;64.60;100454.84;4887425;29;33244;-96
2021/05/24 06:39:17;;;;;;;1.62;1.35;;;;;;;15.59;64.88;100447.03;4894988;29;34000;-95
2021/05/24 06:42:19;;;;;;;2.42;1.73;;;;;;;16.30;64.42;100456.72;4905634;29;33887;-96
2021/05/24 06:45:18;;;;;;;3.75;1.37;;;;;;;16.46;63.90;100476.44;4866383;29;34451;-96
2021/05/24 06:48:28;;;;;;;3.47;1.60;;;;;;;16.48;62.49;100482.50;4870260;29;33522;-96
2021/05/24 06:51:39;;;;;;;;;;;;;;;;;;;;;
2021/05/24 06:54:42;;;;;;;2.50;1.02;;;;;;;17.09;59.97;100468.66;4850134;29;34241;-96
2021/05/24 06:57:48;;;;;;;3.97;1.23;;;;;;;17.54;61.72;100462.44;4875387;29;35068;-96
2021/05/24 07:01:14;;;;;;;2.50;1.15;;;;;;;17.01;59.35;100459.88;4891284;29;34081;-95
2021/05/24 07:04:06;;;;;;;2.05;0.90;;;;;;;17.48;60.27;100449.66;4885652;29;34428;-95
2021/05/24 07:06:46;;;;;;;4.95;1.60;;;;;;;17.39;56.84;100443.56;4874329;29;32848;-96
2021/05/24 07:09:43;;;;;;;1.85;1.17;;;;;;;18.00;55.67;100433.25;4903556;29;34115;-95
2021/05/24 07:12:54;;;;;;;2.33;1.10;;;;;;;18.00;57.32;100444.19;4928838;29;34278;-92
2021/05/24 07:15:36;;;;;;;2.72;1.55;;;;;;;17.83;54.24;100439.19;4931106;29;33639;-96
2021/05/24 07:19:04;;;;;;;1.73;1.10;;;;;;;18.16;55.46;100431.91;4904308;29;31688;-96
2021/05/24 07:21:55;;;;;;;1.80;1.17;;;;;;;18.10;54.60;100439.06;4905208;29;32614;-96
2021/05/24 07:25:04;;;;;;;2.22;1.00;;;;;;;18.49;54.82;100426.16;4909877;29;34332;-94
2021/05/24 07:27:47;;;;;;;2.35;1.17;;;;;;;18.48;55.07;100435.44;4920856;29;34389;-96
2021/05/24 07:30:37;;;;;;;2.15;0.98;;;;;;;18.93;54.12;100417.16;4941500;29;35166;-96
2021/05/24 07:33:26;;;;;;;2.03;1.48;;;;;;;18.82;52.39;100416.81;4911014;29;34375;-96
2021/05/24 07:36:10;;;;;;;1.67;1.10;;;;;;;18.78;52.05;100425.72;4926078;29;34769;-92
2021/05/24 07:38:44;;;;;;;3.67;0.93;;;;;;;19.01;50.14;100409.50;4941662;29;35662;-92
2021/05/24 07:41:42;;;;;;;1.10;1.00;;;;;;;18.86;51.53;100404.38;4928477;29;20792;-93
2021/05/24 07:44:33;;;;;;;2.55;1.75;;;;;;;18.97;52.28;100391.00;4934526;29;33207;-91
2021/05/24 07:47:11;;;;;;;;;;;;;;;18.84;51.40;100391.94;4931937;29;33762;-96
2021/05/24 07:50:02;;;;;;;7.70;1.55;;;;;;;19.06;51.82;100397.84;4950375;28;33925;-96
2021/05/24 07:56:31;;;;;;;1.90;1.23;;;;;;;18.97;53.68;100393.75;4892494;29;34833;-92
2021/05/24 08:03:14;;;;;;;1.48;1.02;;;;;;;19.26;50.26;100407.75;4907714;29;33583;-96
2021/05/24 08:05:57;;;;;;;2.15;1.00;;;;;;;19.56;52.02;100397.66;4928698;29;34016;-95
2021/05/24 08:08:53;;;;;;;3.20;1.25;;;;;;;19.49;52.38;100405.16;4910340;29;32627;-96
2021/05/24 08:11:57;;;;;;;2.75;1.15;;;;;;;19.37;50.40;100412.44;4914729;29;33774;-92
2021/05/24 08:14:37;;;;;;;1.73;1.15;;;;;;;18.86;50.95;100409.87;4927303;29;33643;-96
2021/05/24 08:21:19;;;;;;;3.72;0.82;;;;;;;19.72;50.15;100401.66;4952924;29;33997;-96
2021/05/24 08:24:18;;;;;;;1.02;0.88;;;;;;;19.34;51.90;100413.78;4884427;29;35047;-95
2021/05/24 08:27:20;;;;;;;0.82;0.75;;;;;;;19.50;50.83;100412.28;4944790;28;20126;-96
2021/05/24 08:30:42;;;;;;;4.35;1.12;;;;;;;19.50;50.47;100419.69;4914350;29;33116;-96
2021/05/24 08:34:22;;;;;;;5.07;1.35;;;;;;;19.88;48.98;100424.91;4896333;29;20490;-96
2021/05/24 08:37:41;;;;;;;1.42;0.90;;;;;;;19.96;50.21;100415.50;4908249;29;35167;-96
2021/05/24 08:41:06;;;;;;;2.17;0.85;;;;;;;20.59;48.17;100407.78;4905449;29;35081;-96
2021/05/24 08:44:22;;;;;;;3.45;1.35;;;;;;;20.12;49.25;100430.47;4884398;29;34247;-96
2021/05/24 08:47:58;;;;;;;1.33;1.10;;;;;;;19.22;50.54;100424.66;4962078;28;20142;-95
2021/05/24 08:50:51;;;;;;;2.72;1.62;;;;;;;19.91;51.46;100427.19;4952452;29;34255;-95
2021/05/24 08:53:50;;;;;;;5.72;1.00;;;;;;;20.25;50.82;100427.53;4962540;28;34372;-95
2021/05/24 08:56:39;;;;;;;4.20;1.12;;;;;;;20.51;48.60;100430.94;4965425;28;33025;-96
2021/05/24 08:59:17;;;;;;;1.90;0.85;;;;;;;20.34;48.89;100419.78;4980116;28;33828;-92
2021/05/24 09:02:18;;;;;;;3.97;0.80;;;;;;;20.41;48.08;100425.19;4968111;28;33627;-96
2021/05/24 09:05:09;;;;;;;2.90;0.73;;;;;;;20.59;46.58;100422.31;4963039;28;34695;-94
2021/05/24 09:08:41;;;;;;;1.60;0.68;;;;;;;20.40;46.11;100426.25;4960466;28;20130;-96
2021/05/24 09:12:01;;;;;;;2.12;0.55;;;;;;;20.97;46.88;100429.31;4894638;29;32478;-95
2021/05/24 09:15:21;;;;;;;2.55;0.90;;;;;;;21.46;43.88;100411.66;4905887;29;20700;-93
2021/05/24 09:18:27;;;;;;;4.80;1.23;;;;;;;21.11;44.85;100415.31;4925809;29;33275;-94
2021/05/24 09:21:40;;;;;;;2.85;1.27;;;;;;;21.45;45.26;100401.72;4903471;29;20143;-96
2021/05/24 09:24:33;;;;;;;2.03;0.80;;;;;;;21.63;46.77;100403.50;4907770;29;34425;-93
2021/05/24 09:27:41;;;;;;;2.60;0.68;;;;;;;20.74;44.78;100405.41;4927255;29;33116;-95
2021/05/24 09:30:29;;;;;;;2.40;0.70;;;;;;;21.15;45.27;100405.50;4907831;29;34065;-94
2021/05/24 09:33:13;;;;;;;1.35;0.85;;;;;;;20.53;44.74;100404.06;4892220;29;33545;-92
2021/05/24 09:35:56;;;;;;;1.10;0.80;;;;;;;19.00;48.75;100394.13;4896114;29;34279;-93
2021/05/24 09:38:58;;;;;;;1.23;0.80;;;;;;;20.22;48.42;100399.72;4894344;29;33018;-96
2021/05/24 09:42:28;;;;;;;1.58;1.00;;;;;;;19.76;48.71;100391.09;4900892;29;35555;-95
2021/05/24 09:45:39;;;;;;;3.15;0.60;;;;;;;19.92;48.13;100384.97;4914821;29;20134;-92
2021/05/24 09:48:36;;;;;;;2.97;1.23;;;;;;;19.62;48.29;100384.94;4877504;29;34190;-91
2021/05/24 09:51:39;;;;;;;0.98;0.70;;;;;;;19.96;49.01;100368.06;4892077;29;33693;-96
2021/05/24 09:55:01;;;;;;;2.60;0.75;;;;;;;20.57;47.68;100369.56;4885728;29;34874;-96
2021/05/24 09:57:34;;;;;;;6.30;0.90;;;;;;;21.39;47.07;100361.47;4938433;29;34202;-93
2021/05/24 10:01:02;;;;;;;2.00;0.60;;;;;;;21.37;46.69;100363.63;4940628;29;34140;-95
2021/05/24 10:03:59;;;;;;;10.48;0.75;;;;;;;21.15;44.24;100348.63;4949260;28;33965;-93
2021/05/24 10:06:57;;;;;;;2.50;0.60;;;;;;;21.02;43.65;100350.78;4933258;29;34968;-93
2021/05/24 10:09:43;;;;;;;1.42;0.52;;;;;;;20.23;45.34;100369.28;4950903;29;33158;-96
2021/05/24 10:12:18;;;;;;;2.08;0.50;;;;;;;20.43;45.99;100362.63;4967475;28;33781;-96
2021/05/24 10:15:09;;;;;;;3.42;0.62;;;;;;;20.63;43.03;100368.59;4951173;29;34649;-95
2021/05/24 10:18:11;;;;;;;2.33;0.62;;;;;;;20.70;43.20;100378.66;4981663;28;33779;-95
2021/05/24 10:20:48;;;;;;;1.58;0.65;;;;;;;20.74;45.11;100375.19;4948903;29;33816;-91
2021/05/24 10:23:34;;;;;;;;;;;;;;;20.47;46.22;100369.31;4966575;28;34159;-95
2021/05/24 10:26:40;;;;;;;5.85;1.15;;;;;;;20.75;44.80;100343.09;4890764;29;34363;-96
2021/05/24 10:29:48;;;;;;;2.35;0.75;;;;;;;21.40;43.98;100366.72;4895674;29;33645;-96
2021/05/24 10:32:56;;;;;;;1.40;0.50;;;;;;;21.12;44.58;100360.13;4894242;29;33499;-94
2021/05/24 10:36:32;;;;;;;3.50;0.75;;;;;;;21.59;43.17;100345.41;4876251;29;32874;-96
2021/05/24 10:39:49;;;;;;;2.12;0.70;;;;;;;21.46;43.12;100342.91;4878730;29;20072;-95
2021/05/24 10:43:10;;;;;;;4.57;0.70;;;;;;;21.44;44.84;100334.09;4821106;29;32937;-96
2021/05/24 10:46:29;;;;;;;2.70;1.02;;;;;;;21.82;43.99;100340.88;4862342;29;36754;-96
2021/05/24 10:49:20;;;;;;;1.33;0.60;;;;;;;21.76;42.89;100358.34;4907724;29;33468;-92
2021/05/24 10:53:18;;;;;;;3.15;0.77;;;;;;;21.40;43.80;100349.41;4899741;29;20131;-96
2021/05/24 10:56:59;;;;;;;1.92;0.88;;;;;;;21.54;45.31;100350.78;4896799;29;20146;-96
2021/05/24 11:00:22;;;;;;;3.87;0.70;;;;;;;20.62;46.33;100338.66;4945630;29;33038;-96
2021/05/24 11:07:51;;;;;;;1.95;1.00;;;;;;;20.86;46.17;100309.28;4900812;29;35930;-95
2021/05/24 11:11:29;;;;;;;4.30;0.70;;;;;;;21.09;45.93;100319.38;4875394;29;20123;-91
2021/05/24 11:14:08;;;;;;;3.58;0.90;;;;;;;21.05;45.67;100314.59;4879637;29;33093;-96
2021/05/24 11:16:58;;;;;;;5.10;1.87;;;;;;;20.81;46.79;100318.22;4948347;29;35132;-94
2021/05/24 11:19:41;;;;;;;3.10;0.80;;;;;;;21.20;46.05;100300.31;4935842;29;32746;-92
2021/05/24 11:22:41;;;;;;;1.83;0.77;;;;;;;20.60;47.02;100305.94;4965500;28;32598;-96
2021/05/24 11:28:45;;;;;;;4.40;1.27;;;;;;;20.42;46.80;100303.34;4914506;29;32733;-92
2021/05/24 11:32:16;;;;;;;0.95;0.70;;;;;;;19.82;47.45;100302.44;4926776;29;34904;-96
2021/05/24 11:34:55;;;;;;;1.67;0.88;;;;;;;20.17;46.56;100296.16;4950594;29;33620;-96
2021/05/24 11:38:01;;;;;;;2.22;0.80;;;;;;;20.08;47.77;100297.56;4930696;29;32916;-96
2021/05/24 11:41:27;;;;;;;2.17;0.80;;;;;;;20.55;48.16;100283.00;4927846;29;34324;-93
2021/05/24 11:44:07;;;;;;;1.75;1.00;;;;;;;20.57;48.16;100292.69;4939409;29;32942;-94
2021/05/24 11:47:06;;;;;;;;;;;;;;;20.25;46.84;100295.81;4878188;29;36269;-95
2021/05/24 11:50:27;;;;;;;4.22;0.80;;;;;;;20.58;46.30;100293.50;4896843;29;33343;-96
2021/05/24 11:53:33;;;;;;;5.35;0.90;;;;;;;20.03;46.71;100297.44;4921031;29;33139;-96
2021/05/24 11:56:36;;;;;;;2.33;0.80;;;;;;;20.24;47.12;100299.62;4908085;29;33395;-94
2021/05/24 11:59:19;;;;;;;2.08;0.88;;;;;;;20.71;45.93;100307.03;4884023;29;32883;-96
2021/05/24 12:02:56;;;;;;;6.15;0.93;;;;;;;20.27;45.78;100315.59;4895542;29;20083;-95
2021/05/24 12:06:40;;;;;;;8.00;0.93;;;;;;;19.53;47.68;100304.91;4877617;29;20135;-93
2021/05/24 12:09:54;;;;;;;;;;;;;;;;;;;;;
2021/05/24 12:13:23;;;;;;;0.80;0.70;;;;;;;19.69;46.94;100299.84;4852567;29;34726;-96
2021/05/24 12:16:17;;;;;;;3.00;0.82;;;;;;;20.27;46.29;100293.66;4856578;29;33227;-94
2021/05/24 12:20:16;;;;;;;1.60;0.68;;;;;;;19.84;47.08;100286.56;4814172;29;20140;-96
2021/05/24 12:23:42;;;;;;;3.58;0.90;;;;;;;19.81;48.65;100276.06;4847721;29;33460;-95
2021/05/24 12:26:22;;;;;;;1.83;0.70;;;;;;;19.48;47.82;100280.13;4838743;29;35281;-96
2021/05/24 12:29:56;;;;;;;1.40;0.62;;;;;;;19.76;48.86;100267.69;4829351;29;32823;-96
2021/05/24 12:33:18;;;;;;;2.10;1.25;;;;;;;19.98;48.67;100256.19;4848562;29;33441;-90
2021/05/24 12:40:41;;;;;;;2.12;0.80;;;;;;;19.72;52.27;100239.06;4858997;29;20041;-96
2021/05/24 12:44:13;;;;;;;3.58;0.80;;;;;;;20.06;50.54;100215.50;4884803;29;32000;-96
2021/05/24 12:47:55;;;;;;;2.33;0.80;;;;;;;19.30;53.16;100219.91;4912608;28;35460;-96
2021/05/24 12:51:31;;;;;;;2.28;0.90;;;;;;;19.55;53.55;100215.06;4912366;29;35539;-94
2021/05/24 12:55:19;;;;;;;2.90;1.00;;;;;;;19.49;54.38;100205.06;4863575;29;34587;-95
2021/05/24 12:58:32;;;;;;;2.20;1.10;;;;;;;19.31;53.63;100202.38;4857248;29;33779;-95
2021/05/24 13:06:14;;;;;;;2.78;1.12;;;;;;;19.60;52.51;100176.00;4803433;29;20054;-96
2021/05/24 13:37:46;;;;;;;1.42;0.80;;;;;;;19.50;53.81;100126.41;4909861;29;34719;-96
2021/05/24 13:40:40;;;;;;;3.37;0.98;;;;;;;19.38;54.47;100115.41;4864041;29;34523;-96
2021/05/24 13:44:09;;;;;;;2.40;1.27;;;;;;;19.41;54.54;100102.06;4882907;29;34784;-89
2021/05/24 14:02:53;;;;;;;;;;;;;;;;;;;;;
2021/05/24 14:26:32;;;;;;;5.82;2.50;;;;;;;18.52;61.50;100134.78;4771078;29;20133;-96
2021/05/24 14:31:08;;;;;;;6.28;1.70;;;;;;;18.39;62.20;100127.56;4782457;29;34361;-95
2021/05/24 14:34:05;;;;;;;;;;;;;;;18.43;62.84;100116.97;4699453;30;34450;-96
2021/05/24 15:14:11;;;;;;;4.72;3.17;;;;;;;19.26;64.86;100057.84;4776237;29;20121;-96
2021/05/24 15:50:12;;;;;;;4.40;2.05;;;;;;;17.60;68.50;99987.97;4836419;29;20125;-96
2021/05/24 16:08:00;;;;;;;3.53;2.30;;;;;;;17.36;68.60;99971.41;4857962;29;34337;-96
2021/05/24 16:11:52;;;;;;;7.45;2.62;;;;;;;17.67;67.87;99975.06;4804093;29;20093;-96
2021/05/24 16:53:50;;;;;;;;;;;;;;;;;;;;;
2021/05/24 17:18:26;;;;;;;4.40;2.45;;;;;;;17.69;67.12;99917.44;4928039;29;34568;-96
2021/05/24 17:32:51;;;;;;;;;;;;;;;;;;;;;
2021/05/24 17:36:50;;;;;;;5.82;3.12;;;;;;;16.90;69.40;99888.91;4912069;29;33876;-96
2021/05/24 17:40:34;;;;;;;4.32;3.35;;;;;;;17.11;68.87;99879.47;4761983;29;20778;-91
2021/05/24 17:54:37;;;;;;;;;;;;;;;;;;;;;
2021/05/24 17:57:25;;;;;;;4.82;4.10;;;;;;;16.52;70.97;99843.47;4864417;29;34460;-96
2021/05/24 18:00:52;;;;;;;9.00;6.00;;;;;;;16.74;70.26;99838.44;4814541;29;35661;-94
2021/05/24 18:04:22;;;;;;;8.27;4.18;;;;;;;16.57;70.50;99840.06;4804021;29;33221;-96
2021/05/24 18:07:22;;;;;;;4.97;4.32;;;;;;;16.73;69.96;99836.75;4808762;29;34504;-95
2021/05/24 18:15:15;;;;;;;13.55;6.93;;;;;;;16.68;69.85;99813.97;4980994;28;20125;-95
2021/05/24 18:18:49;;;;;;;11.77;7.55;;;;;;;16.89;68.93;99804.53;4954452;28;20138;-96
2021/05/24 18:21:37;;;;;;;14.10;8.32;;;;;;;16.33;70.99;99785.34;4978511;28;33987;-96
2021/05/24 18:25:23;;;;;;;7.25;3.87;;;;;;;16.52;70.17;99769.00;4958479;28;34918;-96
2021/05/24 18:28:45;;;;;;;4.03;2.60;;;;;;;16.51;69.89;99770.91;5009595;28;35049;-93
2021/05/24 18:31:28;;;;;;;4.72;2.65;;;;;;;16.49;69.59;99785.81;4975679;28;32008;-94
2021/05/24 18:34:38;;;;;;;5.93;2.55;;;;;;;16.00;71.24;99800.09;4964871;28;33209;-96
2021/05/24 18:37:49;;;;;;;5.22;2.37;;;;;;;16.18;70.82;99793.88;4962476;28;20164;-93
2021/05/24 18:41:17;;;;;;;5.43;2.87;;;;;;;16.34;70.29;99797.06;4939377;29;33069;-96
2021/05/24 18:44:37;;;;;;;6.22;2.22;;;;;;;16.34;69.73;99802.53;4939594;28;33373;-96
2021/05/24 18:48:05;;;;;;;3.47;2.20;;;;;;;15.98;70.82;99804.09;4951746;28;34911;-95
2021/05/24 18:51:09;;;;;;;11.00;3.22;;;;;;;16.23;70.18;99824.00;4926939;29;35590;-94
2021/05/24 18:54:11;;;;;;;6.80;2.72;;;;;;;16.26;70.40;99839.09;4919739;29;33314;-94
2021/05/24 18:57:03;;;;;;;5.07;2.55;;;;;;;16.55;69.50;99858.56;4939624;29;34659;-94
2021/05/24 19:00:14;;;;;;;4.05;2.35;;;;;;;16.50;69.41;99870.16;4908305;29;35671;-94
2021/05/24 19:03:51;;;;;;;7.22;2.45;;;;;;;16.18;70.47;99883.00;4895953;29;35070;-94
2021/05/24 19:06:14;;;;;;;6.85;2.65;;;;;;;16.80;68.60;99871.37;4908917;29;34523;-92
2021/05/24 19:09:07;;;;;;;4.55;2.12;;;;;;;16.63;68.97;99873.81;4910676;29;33189;-91
2021/05/24 19:11:42;;;;;;;5.45;2.65;;;;;;;16.84;68.32;99869.84;4894173;29;33407;-92
2021/05/24 19:14:18;;;;;;;3.75;2.35;;;;;;;16.60;68.76;99866.91;4893987;29;33188;-90
2021/05/24 19:16:56;;;;;;;5.43;2.67;;;;;;;16.83;68.16;99876.38;4921578;29;33713;-89
2021/05/24 19:19:37;;;;;;;2.75;2.22;;;;;;;16.62;69.12;99872.13;4920667;29;32705;-96
2021/05/24 19:22:33;;;;;;;5.40;2.10;;;;;;;16.75;68.47;99888.38;4932438;28;33665;-96
2021/05/24 19:25:24;;;;;;;3.55;2.00;;;;;;;16.72;68.30;99897.88;4902984;29;33200;-96
2021/05/24 19:29:06;;;;;;;4.07;2.12;;;;;;;16.81;67.95;99901.16;4954034;28;35750;-95
2021/05/24 19:31:48;;;;;;;3.22;2.10;;;;;;;16.57;68.41;99900.09;4965214;28;34955;-96
2021/05/24 19:34:53;;;;;;;3.45;1.90;;;;;;;16.68;68.66;99888.47;4894965;29;32597;-96
2021/05/24 19:37:42;;;;;;;3.73;2.10;;;;;;;16.53;69.37;99882.53;4927350;29;34715;-95
2021/05/24 19:40:35;;;;;;;3.50;2.10;;;;;;;16.59;69.34;99871.53;4956392;28;36115;-96
2021/05/24 19:43:24;;;;;;;4.68;2.45;;;;;;;16.72;69.25;99862.41;4928248;29;34852;-91
2021/05/24 19:46:00;;;;;;;4.78;2.03;;;;;;;16.53;70.01;99855.25;4958906;28;34218;-91
2021/05/24 20:25:58;;;;;;;6.82;2.90;;;;;;;16.34;70.26;99803.34;4926743;29;34554;-91
2021/05/24 20:28:31;;;;;;;5.43;2.65;;;;;;;16.57;69.47;99807.34;4942388;28;33206;-96
2021/05/24 20:31:18;;;;;;;5.65;3.10;;;;;;;16.29;70.30;99792.28;4959768;28;34865;-95
2021/05/24 20:33:51;;;;;;;5.47;2.90;;;;;;;16.37;70.08;99789.28;4942423;29;34758;-93
2021/05/24 20:36:25;;;;;;;6.15;3.20;;;;;;;16.39;69.95;99786.31;4940622;29;35389;-90
2021/05/24 20:39:09;;;;;;;4.60;3.05;;;;;;;16.51;69.51;99775.50;4956599;28;32754;-92
2021/05/24 20:42:01;;;;;;;8.93;3.00;;;;;;;16.51;69.69;99770.03;4951871;28;34548;-91
2021/05/24 20:44:49;;;;;;;3.62;2.45;;;;;;;16.59;69.22;99761.59;4925515;29;35886;-91
2021/05/24 20:47:29;;;;;;;5.18;2.22;;;;;;;16.38;69.95;99751.94;4941049;29;33693;-91
2021/05/24 20:50:18;;;;;;;5.25;2.45;;;;;;;16.36;69.98;99756.78;4955372;28;32249;-91
2021/05/24 20:53:06;;;;;;;4.68;2.40;;;;;;;16.51;69.48;99760.00;4939859;29;33158;-92
2021/05/24 20:55:58;;;;;;;3.35;2.35;;;;;;;16.36;69.89;99768.53;4939484;29;33643;-92
2021/05/24 20:58:36;;;;;;;2.65;2.00;;;;;;;16.40;69.91;99766.19;4941798;29;33935;-91
2021/05/24 21:01:09;;;;;;;8.20;2.95;;;;;;;16.39;70.03;99772.69;4955911;28;34333;-92
2021/05/24 21:03:43;;;;;;;4.37;2.42;;;;;;;16.36;69.99;99768.53;4942201;29;33768;-91
2021/05/24 21:06:26;;;;;;;2.80;2.25;;;;;;;16.41;69.81;99765.94;4955376;28;34521;-93
2021/05/24 21:09:03;;;;;;;9.27;2.65;;;;;;;16.42;69.84;99769.50;4957119;28;34422;-91
2021/05/24 21:11:36;;;;;;;2.33;2.08;;;;;;;16.51;69.54;99764.59;4940522;29;34063;-90
2021/05/24 21:14:09;;;;;;;4.75;2.35;;;;;;;16.51;69.39;99759.13;4943123;29;33866;-90
2021/05/24 21:16:43;;;;;;;3.78;2.30;;;;;;;16.45;69.73;99776.41;4940965;29;34117;-92
2021/05/24 21:19:16;;;;;;;2.00;1.70;;;;;;;16.38;69.90;99780.03;4941700;29;34580;-91
2021/05/24 21:21:52;;;;;;;2.80;2.10;;;;;;;16.44;69.83;99780.19;4939466;29;32841;-90
2021/05/24 21:24:27;;;;;;;6.28;3.22;;;;;;;16.16;70.79;99773.31;4956988;28;35539;-90
2021/05/24 21:27:00;;;;;;;6.28;2.40;;;;;;;16.05;71.14;99772.16;4925647;29;34406;-90
2021/05/24 21:29:34;;;;;;;4.20;2.37;;;;;;;15.91;71.71;99763.25;4956879;28;34403;-90
2021/05/24 21:32:15;;;;;;;2.58;2.33;;;;;;;15.87;71.73;99756.59;4958220;28;33531;-91
2021/05/24 21:37:41;;;;;;;5.50;2.40;;;;;;;15.92;71.38;99743.13;4943617;29;33800;-91